Hlavní strana
METAR-TAF:

METAR-TAF

Letiště :

Padova, Itálie

zeměpisná šířka: 45-23-45N, zeměpisná délka: 11-50-53E, výška: 13 m

Aktuální stav počasí

Zpráva byla vytvořena před 1 hodinou a 11 minutami, v 06:00 UTC
Severoseverozápadní vítr 4 kt, proměnlivý mezi západoseverozápadním a severoseverovýchodním
Teplota 21°C
Vlhkost vzduchu 83%
Tlak 1015 hPa
Viditelnost 10 km a více
Oblačno až skoro zataženo ve výšce 7000 ft

METAR: LIPU 150600Z 34004KT 300V020 9999 BKN070 21/18 Q1015

Čas: 09:11 (07:11 UTC)


TAF: chybějící

Stav a předpovědi počasí z více než 4 000 letišť (zprávy METAR a TAF).

Červené a žluté tečky na mapě představují dostupné meteorologické stanice.

Když kurzor umístíte na tečku, zobrazí se název stanice.

Pak kliknutím zobrazíte stav a předpověď počasí.

Chcete-li změnit mapu, kliknutím na zelené tlačítko se znaménkem +mapu přiblížíte, kliknutím na zelené tlačítko se znaménkem – mapu oddálíte a kliknutím na zelené šipky přejdete na sousední mapy.


METAR-TAF: